Terminal Aerodrome Forecast
Issued by NWS

Home | Current Version | Previous Version | Text Only | Print | Product List | Glossary On
Versions: 1 2 3 4 5 6 7 8 9 10 11 12 13 14 15 16 17 18 19 20 21
000
FTUS41 KBOX 231722
TAFFMH
TAF
KFMH 231722Z 2318/2418 03012KT P6SM SCT025 BKN050
      TEMPO 2318/2321 5SM -SHRA BKN025
     FM232200 05008KT 5SM -SHRA BKN015
     FM240500 02009KT P6SM BKN010
     FM241000 35013G25KT P6SM OVC015
     FM241700 33013KT P6SM OVC025=

USA.gov is the U.S. government's official web portal to all federal, state and local government web resources and services.